This is the latest recevied weather packets stored in our database for station/object GW1479. If no packets are shown the sender has not sent any weather packets the latest 10 day(s).
| Time | Temp. | Humidity | Pressure | Rain* | Wind** | Luminosity | Snow |
|---|---|---|---|---|---|---|---|
| 1777621373 | 2.78° C | 99% | 1014.9 hPa | 0 mm | - | - | - |
| 1777620987 | 2.78° C | 99% | 1014.9 hPa | 0 mm | - | - | - |
| 1777618453 | 3.33° C | 99% | 1015.2 hPa | 0 mm | - | - | - |
| 1777615948 | 3.33° C | 99% | 1015.5 hPa | 0 mm | - | - | - |
| 1777613420 | 2.78° C | 99% | 1015.9 hPa | 0 mm | - | - | - |
| 1777605170 | 5.56° C | 99% | 1015.9 hPa | 2.03 mm | - | - | - |
| 1777604801 | 5.56° C | 99% | 1015.9 hPa | 2.03 mm | - | - | - |
| 1777602278 | 6.11° C | 98% | 1015.9 hPa | 2.03 mm | - | - | - |
| 1777600495 | 7.22° C | 97% | 1015.2 hPa | 2.03 mm | - | - | - |
| 1777598331 | 8.89° C | 94% | 1014.9 hPa | 2.03 mm | - | - | - |
| 1777595807 | 10.56° C | 90% | 1014.5 hPa | 2.03 mm | - | - | - |
| 1777592921 | 12.22° C | 90% | 1014.2 hPa | 2.03 mm | - | - | - |
| 1777590413 | 13.33° C | 71% | 1013.8 hPa | 2.03 mm | - | - | - |
| 1777588951 | 12.78° C | 71% | 1013.5 hPa | 2.03 mm | - | - | - |
| 1777584619 | 12.78° C | 74% | 1013.8 hPa | 2.03 mm | - | - | - |
| 1777583566 | 12.78° C | 75% | 1013.5 hPa | 2.03 mm | - | - | - |
| 1777573462 | 9.44° C | 97% | 1013.2 hPa | 1.52 mm | - | - | - |
| 1777573123 | 11.11° C | 89% | 1013.2 hPa | 0.25 mm | - | - | - |
| 1777568074 | 10.56° C | 86% | 1013.2 hPa | 0.25 mm | - | - | - |
| 1777564853 | 13.33° C | 71% | 1012.8 hPa | 0.25 mm | - | - | - |
| 1777564461 | 12.78° C | 74% | 1013.2 hPa | 0.25 mm | - | - | - |
| 1777555119 | 11.11° C | 92% | 1011.8 hPa | 0.25 mm | - | - | - |
| 1777554031 | 11.11° C | 95% | 1011.8 hPa | 0.25 mm | - | - | - |
| 1777552218 | 11.11° C | 95% | 1011.5 hPa | 0.25 mm | - | - | - |
| 1777547554 | 10° C | 99% | 1010.8 hPa | 0.25 mm | - | - | - |
* Rain since midnight (hover to see other rain measurements)
** Current wind speed in m/s (hover to see current wind gust speed)